sensor_id;sensor_type;location;lat;lon;timestamp;temperature;humidity
69628;DHT22;56850;51.984;5.088;2022-08-11T00:01:19;26.00;44.50
69628;DHT22;56850;51.984;5.088;2022-08-11T00:03:52;25.90;44.60
69628;DHT22;56850;51.984;5.088;2022-08-11T00:06:29;25.90;44.70
69628;DHT22;56850;51.984;5.088;2022-08-11T00:08:58;25.80;44.70
69628;DHT22;56850;51.984;5.088;2022-08-11T00:11:43;25.80;44.80
69628;DHT22;56850;51.984;5.088;2022-08-11T00:14:17;25.70;44.80
69628;DHT22;56850;51.984;5.088;2022-08-11T00:16:56;25.70;44.80
69628;DHT22;56850;51.984;5.088;2022-08-11T00:19:30;25.70;44.90
69628;DHT22;56850;51.984;5.088;2022-08-11T00:22:21;25.60;44.80
69628;DHT22;56850;51.984;5.088;2022-08-11T00:24:49;25.60;44.90
69628;DHT22;56850;51.984;5.088;2022-08-11T00:27:31;25.50;44.90
69628;DHT22;56850;51.984;5.088;2022-08-11T00:29:59;25.40;45.00
69628;DHT22;56850;51.984;5.088;2022-08-11T00:32:26;25.40;45.10
69628;DHT22;56850;51.984;5.088;2022-08-11T00:34:54;25.30;45.20
69628;DHT22;56850;51.984;5.088;2022-08-11T00:37:49;25.20;45.30
69628;DHT22;56850;51.984;5.088;2022-08-11T00:40:28;25.20;45.30
69628;DHT22;56850;51.984;5.088;2022-08-11T00:43:12;25.20;45.30
69628;DHT22;56850;51.984;5.088;2022-08-11T00:51:53;25.10;45.40
69628;DHT22;56850;51.984;5.088;2022-08-11T00:57:52;25.00;45.40
69628;DHT22;56850;51.984;5.088;2022-08-11T01:00:23;24.90;45.50
69628;DHT22;56850;51.984;5.088;2022-08-11T01:03:29;24.90;45.50
69628;DHT22;56850;51.984;5.088;2022-08-11T01:06:26;24.80;45.50
69628;DHT22;56850;51.984;5.088;2022-08-11T01:21:05;24.70;45.60
69628;DHT22;56850;51.984;5.088;2022-08-11T01:23:55;24.70;45.50
69628;DHT22;56850;51.984;5.088;2022-08-11T01:30:07;24.60;45.60
69628;DHT22;56850;51.984;5.088;2022-08-11T01:56:22;24.30;46.10
69628;DHT22;56850;51.984;5.088;2022-08-11T01:59:14;24.30;46.10
69628;DHT22;56850;51.984;5.088;2022-08-11T02:02:15;24.20;46.20
69628;DHT22;56850;51.984;5.088;2022-08-11T02:05:28;24.20;46.30
69628;DHT22;56850;51.984;5.088;2022-08-11T02:08:08;24.20;46.40
69628;DHT22;56850;51.984;5.088;2022-08-11T02:10:53;24.10;46.50
69628;DHT22;56850;51.984;5.088;2022-08-11T02:22:12;24.00;46.90
69628;DHT22;56850;51.984;5.088;2022-08-11T02:25:07;24.00;46.90
69628;DHT22;56850;51.984;5.088;2022-08-11T02:27:58;23.90;47.00
69628;DHT22;56850;51.984;5.088;2022-08-11T02:30:32;23.90;47.10
69628;DHT22;56850;51.984;5.088;2022-08-11T02:33:24;23.80;47.20
69628;DHT22;56850;51.984;5.088;2022-08-11T02:36:06;23.80;47.40
69628;DHT22;56850;51.984;5.088;2022-08-11T02:41:44;23.70;47.60
69628;DHT22;56850;51.984;5.088;2022-08-11T02:53:00;23.60;48.00
69628;DHT22;56850;51.984;5.088;2022-08-11T02:58:46;23.60;48.20
69628;DHT22;56850;51.984;5.088;2022-08-11T03:01:49;23.50;48.30
69628;DHT22;56850;51.984;5.088;2022-08-11T03:04:59;23.50;48.40
69628;DHT22;56850;51.984;5.088;2022-08-11T03:13:19;23.40;48.70
69628;DHT22;56850;51.984;5.088;2022-08-11T03:16:20;23.40;48.70
69628;DHT22;56850;51.984;5.088;2022-08-11T03:33:17;23.20;49.70
69628;DHT22;56850;51.984;5.088;2022-08-11T03:41:25;23.10;50.00
69628;DHT22;56850;51.984;5.088;2022-08-11T03:50:26;23.00;50.40
69628;DHT22;56850;51.984;5.088;2022-08-11T03:53:26;23.00;50.50
69628;DHT22;56850;51.984;5.088;2022-08-11T04:10:57;22.70;51.30
69628;DHT22;56850;51.984;5.088;2022-08-11T04:13:49;22.70;51.50
69628;DHT22;56850;51.984;5.088;2022-08-11T04:16:38;22.70;51.60
69628;DHT22;56850;51.984;5.088;2022-08-11T04:36:34;22.50;52.30
69628;DHT22;56850;51.984;5.088;2022-08-11T04:58:20;22.30;53.00
69628;DHT22;56850;51.984;5.088;2022-08-11T05:12:56;22.30;53.30
69628;DHT22;56850;51.984;5.088;2022-08-11T05:15:50;22.30;53.40
69628;DHT22;56850;51.984;5.088;2022-08-11T05:18:48;22.30;53.40
69628;DHT22;56850;51.984;5.088;2022-08-11T05:21:35;22.30;53.50
69628;DHT22;56850;51.984;5.088;2022-08-11T05:24:33;22.30;53.50
69628;DHT22;56850;51.984;5.088;2022-08-11T05:27:24;22.30;53.60
69628;DHT22;56850;51.984;5.088;2022-08-11T05:30:11;22.30;53.60
69628;DHT22;56850;51.984;5.088;2022-08-11T05:33:09;22.30;53.60
69628;DHT22;56850;51.984;5.088;2022-08-11T05:39:06;22.30;53.80
69628;DHT22;56850;51.984;5.088;2022-08-11T05:42:04;22.30;53.80
69628;DHT22;56850;51.984;5.088;2022-08-11T05:45:12;22.20;53.90
69628;DHT22;56850;51.984;5.088;2022-08-11T05:48:18;22.30;54.00
69628;DHT22;56850;51.984;5.088;2022-08-11T05:51:05;22.30;53.90
69628;DHT22;56850;51.984;5.088;2022-08-11T05:53:58;22.40;53.80
69628;DHT22;56850;51.984;5.088;2022-08-11T05:56:58;22.40;53.80
69628;DHT22;56850;51.984;5.088;2022-08-11T05:59:27;22.40;53.70
69628;DHT22;56850;51.984;5.088;2022-08-11T06:02:04;22.50;53.60
69628;DHT22;56850;51.984;5.088;2022-08-11T06:04:32;22.50;53.60
69628;DHT22;56850;51.984;5.088;2022-08-11T06:07:06;22.50;53.50
69628;DHT22;56850;51.984;5.088;2022-08-11T06:09:36;22.60;53.50
69628;DHT22;56850;51.984;5.088;2022-08-11T06:12:15;22.60;53.40
69628;DHT22;56850;51.984;5.088;2022-08-11T06:14:43;22.60;53.30
69628;DHT22;56850;51.984;5.088;2022-08-11T06:17:11;22.70;53.20
69628;DHT22;56850;51.984;5.088;2022-08-11T06:19:40;22.70;53.10
69628;DHT22;56850;51.984;5.088;2022-08-11T06:22:11;22.70;53.00
69628;DHT22;56850;51.984;5.088;2022-08-11T06:24:41;22.70;52.90
69628;DHT22;56850;51.984;5.088;2022-08-11T06:27:08;22.80;52.80
69628;DHT22;56850;51.984;5.088;2022-08-11T06:29:51;22.80;52.60
69628;DHT22;56850;51.984;5.088;2022-08-11T06:32:27;22.90;52.40
69628;DHT22;56850;51.984;5.088;2022-08-11T06:35:16;22.90;52.30
69628;DHT22;56850;51.984;5.088;2022-08-11T06:43:50;23.10;51.90
69628;DHT22;56850;51.984;5.088;2022-08-11T09:54:17;32.70;34.40
69628;DHT22;56850;51.984;5.088;2022-08-11T09:56:44;32.80;34.00
69628;DHT22;56850;51.984;5.088;2022-08-11T09:59:31;32.90;33.90
69628;DHT22;56850;51.984;5.088;2022-08-11T10:02:01;33.10;33.30
69628;DHT22;56850;51.984;5.088;2022-08-11T10:04:43;33.20;33.10
69628;DHT22;56850;51.984;5.088;2022-08-11T10:07:15;33.30;32.80
69628;DHT22;56850;51.984;5.088;2022-08-11T10:09:54;33.50;32.60
69628;DHT22;56850;51.984;5.088;2022-08-11T10:12:24;33.60;32.00
69628;DHT22;56850;51.984;5.088;2022-08-11T10:14:55;33.90;31.90
69628;DHT22;56850;51.984;5.088;2022-08-11T10:17:43;34.00;31.50
69628;DHT22;56850;51.984;5.088;2022-08-11T10:20:48;34.10;31.40
69628;DHT22;56850;51.984;5.088;2022-08-11T10:23:16;34.30;31.30
69628;DHT22;56850;51.984;5.088;2022-08-11T10:26:24;34.40;30.80
69628;DHT22;56850;51.984;5.088;2022-08-11T10:29:12;34.50;30.60
69628;DHT22;56850;51.984;5.088;2022-08-11T10:32:10;34.60;29.60
69628;DHT22;56850;51.984;5.088;2022-08-11T10:34:58;34.60;29.50
69628;DHT22;56850;51.984;5.088;2022-08-11T10:37:27;34.70;29.60
69628;DHT22;56850;51.984;5.088;2022-08-11T10:40:21;34.80;29.50
69628;DHT22;56850;51.984;5.088;2022-08-11T10:42:58;34.90;28.90
69628;DHT22;56850;51.984;5.088;2022-08-11T10:45:31;34.90;28.70
69628;DHT22;56850;51.984;5.088;2022-08-11T10:48:20;35.00;28.60
69628;DHT22;56850;51.984;5.088;2022-08-11T10:50:48;35.10;28.70
69628;DHT22;56850;51.984;5.088;2022-08-11T10:53:37;35.30;28.50
69628;DHT22;56850;51.984;5.088;2022-08-11T10:56:23;35.40;28.40
69628;DHT22;56850;51.984;5.088;2022-08-11T10:59:13;35.40;28.20
69628;DHT22;56850;51.984;5.088;2022-08-11T11:01:41;35.50;27.70
69628;DHT22;56850;51.984;5.088;2022-08-11T11:04:16;35.50;27.00
69628;DHT22;56850;51.984;5.088;2022-08-11T11:07:02;35.60;26.70
69628;DHT22;56850;51.984;5.088;2022-08-11T11:09:59;35.70;26.40
69628;DHT22;56850;51.984;5.088;2022-08-11T11:15:13;36.00;26.40
69628;DHT22;56850;51.984;5.088;2022-08-11T11:18:06;36.10;26.40
69628;DHT22;56850;51.984;5.088;2022-08-11T11:20:37;36.20;26.10
69628;DHT22;56850;51.984;5.088;2022-08-11T11:23:36;36.30;26.00
69628;DHT22;56850;51.984;5.088;2022-08-11T11:26:28;36.40;25.70
69628;DHT22;56850;51.984;5.088;2022-08-11T11:34:27;36.70;25.30
69628;DHT22;56850;51.984;5.088;2022-08-11T11:37:01;36.80;25.10
69628;DHT22;56850;51.984;5.088;2022-08-11T11:39:32;36.80;25.00
69628;DHT22;56850;51.984;5.088;2022-08-11T11:42:05;36.80;24.90
69628;DHT22;56850;51.984;5.088;2022-08-11T11:44:33;36.90;25.00
69628;DHT22;56850;51.984;5.088;2022-08-11T11:47:03;37.00;24.70
69628;DHT22;56850;51.984;5.088;2022-08-11T11:49:31;37.10;24.30
69628;DHT22;56850;51.984;5.088;2022-08-11T11:52:01;37.20;24.20
69628;DHT22;56850;51.984;5.088;2022-08-11T11:54:30;37.20;24.20
69628;DHT22;56850;51.984;5.088;2022-08-11T11:57:00;37.30;24.10
69628;DHT22;56850;51.984;5.088;2022-08-11T11:59:48;37.30;24.20
69628;DHT22;56850;51.984;5.088;2022-08-11T12:03:02;37.40;24.10
69628;DHT22;56850;51.984;5.088;2022-08-11T12:05:32;37.40;24.40
69628;DHT22;56850;51.984;5.088;2022-08-11T12:08:01;37.40;24.40
69628;DHT22;56850;51.984;5.088;2022-08-11T12:10:54;37.50;24.10
69628;DHT22;56850;51.984;5.088;2022-08-11T12:13:44;37.60;23.60
69628;DHT22;56850;51.984;5.088;2022-08-11T12:16:13;37.70;23.50
69628;DHT22;56850;51.984;5.088;2022-08-11T12:19:01;37.70;23.40
69628;DHT22;56850;51.984;5.088;2022-08-11T12:21:29;37.80;23.30
69628;DHT22;56850;51.984;5.088;2022-08-11T12:23:57;37.80;23.50
69628;DHT22;56850;51.984;5.088;2022-08-11T12:26:45;37.90;23.90
69628;DHT22;56850;51.984;5.088;2022-08-11T12:29:35;38.00;23.60
69628;DHT22;56850;51.984;5.088;2022-08-11T12:32:09;38.10;23.50
69628;DHT22;56850;51.984;5.088;2022-08-11T12:34:37;38.00;23.20
69628;DHT22;56850;51.984;5.088;2022-08-11T12:37:05;38.00;23.30
69628;DHT22;56850;51.984;5.088;2022-08-11T12:39:44;38.00;23.40
69628;DHT22;56850;51.984;5.088;2022-08-11T12:42:51;38.10;23.30
69628;DHT22;56850;51.984;5.088;2022-08-11T12:45:53;38.20;23.20
69628;DHT22;56850;51.984;5.088;2022-08-11T12:48:28;38.30;23.00
69628;DHT22;56850;51.984;5.088;2022-08-11T12:51:34;38.30;22.80
69628;DHT22;56850;51.984;5.088;2022-08-11T12:57:41;38.30;22.90
69628;DHT22;56850;51.984;5.088;2022-08-11T13:00:30;38.30;23.30
69628;DHT22;56850;51.984;5.088;2022-08-11T13:03:18;38.50;23.40
69628;DHT22;56850;51.984;5.088;2022-08-11T13:06:05;38.60;23.10
69628;DHT22;56850;51.984;5.088;2022-08-11T13:08:35;38.80;23.10
69628;DHT22;56850;51.984;5.088;2022-08-11T13:11:03;38.90;23.00
69628;DHT22;56850;51.984;5.088;2022-08-11T13:13:50;39.00;23.10
69628;DHT22;56850;51.984;5.088;2022-08-11T13:16:33;39.10;22.80
69628;DHT22;56850;51.984;5.088;2022-08-11T13:19:20;39.20;22.60
69628;DHT22;56850;51.984;5.088;2022-08-11T13:21:51;39.20;22.60
69628;DHT22;56850;51.984;5.088;2022-08-11T13:24:20;39.30;22.40
69628;DHT22;56850;51.984;5.088;2022-08-11T13:26:48;39.40;22.40
69628;DHT22;56850;51.984;5.088;2022-08-11T13:29:19;39.40;22.30
69628;DHT22;56850;51.984;5.088;2022-08-11T13:31:46;39.40;22.40
69628;DHT22;56850;51.984;5.088;2022-08-11T13:34:15;39.40;22.50
69628;DHT22;56850;51.984;5.088;2022-08-11T13:36:43;39.50;22.40
69628;DHT22;56850;51.984;5.088;2022-08-11T13:39:12;39.50;22.40
69628;DHT22;56850;51.984;5.088;2022-08-11T13:41:41;39.60;22.30
69628;DHT22;56850;51.984;5.088;2022-08-11T13:44:14;39.60;22.30
69628;DHT22;56850;51.984;5.088;2022-08-11T13:46:46;39.60;22.30
69628;DHT22;56850;51.984;5.088;2022-08-11T13:49:19;39.60;22.40
69628;DHT22;56850;51.984;5.088;2022-08-11T13:51:47;39.60;22.30
69628;DHT22;56850;51.984;5.088;2022-08-11T13:54:20;39.60;22.20
69628;DHT22;56850;51.984;5.088;2022-08-11T13:56:51;39.60;22.10
69628;DHT22;56850;51.984;5.088;2022-08-11T13:59:20;39.70;22.20
69628;DHT22;56850;51.984;5.088;2022-08-11T14:01:59;39.70;22.20
69628;DHT22;56850;51.984;5.088;2022-08-11T14:04:55;39.70;22.20
69628;DHT22;56850;51.984;5.088;2022-08-11T14:07:24;39.80;22.20
69628;DHT22;56850;51.984;5.088;2022-08-11T14:09:57;39.90;22.00
69628;DHT22;56850;51.984;5.088;2022-08-11T14:12:30;40.00;22.00
69628;DHT22;56850;51.984;5.088;2022-08-11T14:15:23;40.10;22.00
69628;DHT22;56850;51.984;5.088;2022-08-11T14:17:56;40.20;22.00
69628;DHT22;56850;51.984;5.088;2022-08-11T14:20:29;40.10;21.90
69628;DHT22;56850;51.984;5.088;2022-08-11T14:23:17;40.00;22.00
69628;DHT22;56850;51.984;5.088;2022-08-11T14:25:45;40.00;22.10
69628;DHT22;56850;51.984;5.088;2022-08-11T14:28:33;40.00;22.20
69628;DHT22;56850;51.984;5.088;2022-08-11T14:31:10;40.10;22.10
69628;DHT22;56850;51.984;5.088;2022-08-11T14:33:38;40.10;22.10
69628;DHT22;56850;51.984;5.088;2022-08-11T14:36:36;40.20;22.10
69628;DHT22;56850;51.984;5.088;2022-08-11T14:39:16;40.20;22.00
69628;DHT22;56850;51.984;5.088;2022-08-11T14:41:56;40.10;21.90
69628;DHT22;56850;51.984;5.088;2022-08-11T14:44:56;40.00;22.00
69628;DHT22;56850;51.984;5.088;2022-08-11T14:47:46;39.90;22.10
69628;DHT22;56850;51.984;5.088;2022-08-11T14:50:17;39.80;22.40
69628;DHT22;56850;51.984;5.088;2022-08-11T14:52:55;39.80;22.40
69628;DHT22;56850;51.984;5.088;2022-08-11T14:55:24;39.80;22.40
69628;DHT22;56850;51.984;5.088;2022-08-11T14:58:13;39.90;22.20
69628;DHT22;56850;51.984;5.088;2022-08-11T15:00:42;40.00;22.40
69628;DHT22;56850;51.984;5.088;2022-08-11T15:03:12;40.00;22.40
69628;DHT22;56850;51.984;5.088;2022-08-11T15:05:54;40.00;22.40
69628;DHT22;56850;51.984;5.088;2022-08-11T15:08:35;40.10;22.30
69628;DHT22;56850;51.984;5.088;2022-08-11T15:11:30;40.20;22.30
69628;DHT22;56850;51.984;5.088;2022-08-11T15:14:17;40.10;22.30
69628;DHT22;56850;51.984;5.088;2022-08-11T15:17:08;40.10;22.20
69628;DHT22;56850;51.984;5.088;2022-08-11T15:19:40;40.10;22.10
69628;DHT22;56850;51.984;5.088;2022-08-11T15:22:26;40.10;22.20
69628;DHT22;56850;51.984;5.088;2022-08-11T15:25:12;40.10;22.30
69628;DHT22;56850;51.984;5.088;2022-08-11T15:27:40;40.10;22.20
69628;DHT22;56850;51.984;5.088;2022-08-11T15:30:27;40.10;22.10
69628;DHT22;56850;51.984;5.088;2022-08-11T15:33:14;40.00;22.10
69628;DHT22;56850;51.984;5.088;2022-08-11T15:36:04;39.90;22.10
69628;DHT22;56850;51.984;5.088;2022-08-11T15:38:57;39.80;22.20
69628;DHT22;56850;51.984;5.088;2022-08-11T15:41:36;39.70;22.40
69628;DHT22;56850;51.984;5.088;2022-08-11T15:44:29;39.60;22.40
69628;DHT22;56850;51.984;5.088;2022-08-11T15:47:58;39.40;22.40
69628;DHT22;56850;51.984;5.088;2022-08-11T15:50:33;39.20;22.60
69628;DHT22;56850;51.984;5.088;2022-08-11T15:53:09;39.10;22.50
69628;DHT22;56850;51.984;5.088;2022-08-11T15:55:38;39.10;22.70
69628;DHT22;56850;51.984;5.088;2022-08-11T15:58:07;39.00;22.80
69628;DHT22;56850;51.984;5.088;2022-08-11T16:00:54;39.00;23.00
69628;DHT22;56850;51.984;5.088;2022-08-11T16:03:51;39.10;22.80
69628;DHT22;56850;51.984;5.088;2022-08-11T16:09:15;39.10;22.60
69628;DHT22;56850;51.984;5.088;2022-08-11T16:11:45;39.00;22.70
69628;DHT22;56850;51.984;5.088;2022-08-11T16:14:15;38.80;22.80
69628;DHT22;56850;51.984;5.088;2022-08-11T16:17:02;38.70;22.90
69628;DHT22;56850;51.984;5.088;2022-08-11T16:19:30;38.70;22.90
69628;DHT22;56850;51.984;5.088;2022-08-11T16:22:05;38.70;22.90
69628;DHT22;56850;51.984;5.088;2022-08-11T16:24:40;38.80;22.90
69628;DHT22;56850;51.984;5.088;2022-08-11T16:27:32;38.70;23.00
69628;DHT22;56850;51.984;5.088;2022-08-11T16:30:01;38.60;23.10
69628;DHT22;56850;51.984;5.088;2022-08-11T16:32:30;38.60;23.10
69628;DHT22;56850;51.984;5.088;2022-08-11T16:35:05;38.60;23.00
69628;DHT22;56850;51.984;5.088;2022-08-11T16:37:52;38.60;23.10
69628;DHT22;56850;51.984;5.088;2022-08-11T16:40:39;38.50;23.00
69628;DHT22;56850;51.984;5.088;2022-08-11T16:43:11;38.40;23.00
69628;DHT22;56850;51.984;5.088;2022-08-11T16:45:58;38.30;23.20
69628;DHT22;56850;51.984;5.088;2022-08-11T16:48:47;38.30;23.20
69628;DHT22;56850;51.984;5.088;2022-08-11T16:51:15;38.20;23.30
69628;DHT22;56850;51.984;5.088;2022-08-11T16:53:43;38.10;23.30
69628;DHT22;56850;51.984;5.088;2022-08-11T16:56:47;38.00;23.30
69628;DHT22;56850;51.984;5.088;2022-08-11T16:59:17;38.00;23.50
69628;DHT22;56850;51.984;5.088;2022-08-11T17:01:53;37.90;23.50
69628;DHT22;56850;51.984;5.088;2022-08-11T17:07:29;37.70;23.50
69628;DHT22;56850;51.984;5.088;2022-08-11T17:10:28;37.50;23.60
69628;DHT22;56850;51.984;5.088;2022-08-11T17:13:43;37.50;23.70
69628;DHT22;56850;51.984;5.088;2022-08-11T17:16:16;37.30;23.70
69628;DHT22;56850;51.984;5.088;2022-08-11T17:19:02;37.20;24.10
69628;DHT22;56850;51.984;5.088;2022-08-11T17:21:46;37.20;24.20
69628;DHT22;56850;51.984;5.088;2022-08-11T17:24:35;37.10;24.20
69628;DHT22;56850;51.984;5.088;2022-08-11T17:27:04;36.90;24.40
69628;DHT22;56850;51.984;5.088;2022-08-11T17:29:55;36.90;24.40
69628;DHT22;56850;51.984;5.088;2022-08-11T17:32:30;36.80;24.20
69628;DHT22;56850;51.984;5.088;2022-08-11T17:35:29;36.80;24.30
69628;DHT22;56850;51.984;5.088;2022-08-11T17:38:03;36.70;24.30
69628;DHT22;56850;51.984;5.088;2022-08-11T17:40:33;36.70;24.40
69628;DHT22;56850;51.984;5.088;2022-08-11T17:43:03;36.60;24.70
69628;DHT22;56850;51.984;5.088;2022-08-11T17:45:51;36.40;25.10
69628;DHT22;56850;51.984;5.088;2022-08-11T17:48:36;36.30;25.40
69628;DHT22;56850;51.984;5.088;2022-08-11T17:51:16;36.20;25.50
69628;DHT22;56850;51.984;5.088;2022-08-11T17:54:05;36.20;25.60
69628;DHT22;56850;51.984;5.088;2022-08-11T17:56:52;36.20;25.70
69628;DHT22;56850;51.984;5.088;2022-08-11T17:59:48;36.20;25.50
69628;DHT22;56850;51.984;5.088;2022-08-11T18:05:17;35.90;25.60
69628;DHT22;56850;51.984;5.088;2022-08-11T18:07:49;35.80;25.90
69628;DHT22;56850;51.984;5.088;2022-08-11T18:10:35;35.70;26.10
69628;DHT22;56850;51.984;5.088;2022-08-11T18:13:23;35.60;26.40
69628;DHT22;56850;51.984;5.088;2022-08-11T18:16:10;35.50;26.60
69628;DHT22;56850;51.984;5.088;2022-08-11T18:18:56;35.30;26.70
69628;DHT22;56850;51.984;5.088;2022-08-11T18:21:44;35.20;26.90
69628;DHT22;56850;51.984;5.088;2022-08-11T18:24:49;35.20;27.10
69628;DHT22;56850;51.984;5.088;2022-08-11T18:27:37;35.10;27.30
69628;DHT22;56850;51.984;5.088;2022-08-11T18:30:25;35.00;27.40
69628;DHT22;56850;51.984;5.088;2022-08-11T18:33:12;34.90;27.50
69628;DHT22;56850;51.984;5.088;2022-08-11T18:36:28;34.90;27.60
69628;DHT22;56850;51.984;5.088;2022-08-11T18:39:17;34.80;27.90
69628;DHT22;56850;51.984;5.088;2022-08-11T18:42:09;34.70;28.10
69628;DHT22;56850;51.984;5.088;2022-08-11T18:45:03;34.70;28.10
69628;DHT22;56850;51.984;5.088;2022-08-11T18:47:59;34.60;28.20
69628;DHT22;56850;51.984;5.088;2022-08-11T18:50:46;34.60;28.30
69628;DHT22;56850;51.984;5.088;2022-08-11T18:53:56;34.50;28.30
69628;DHT22;56850;51.984;5.088;2022-08-11T18:56:45;34.40;28.40
69628;DHT22;56850;51.984;5.088;2022-08-11T18:59:39;34.30;28.50
69628;DHT22;56850;51.984;5.088;2022-08-11T19:02:26;34.20;28.60
69628;DHT22;56850;51.984;5.088;2022-08-11T19:05:17;34.20;28.70
69628;DHT22;56850;51.984;5.088;2022-08-11T19:08:28;34.10;28.80
69628;DHT22;56850;51.984;5.088;2022-08-11T19:11:14;34.10;28.90
69628;DHT22;56850;51.984;5.088;2022-08-11T19:14:09;34.00;29.00
69628;DHT22;56850;51.984;5.088;2022-08-11T19:16:59;34.00;28.90
69628;DHT22;56850;51.984;5.088;2022-08-11T19:20:10;33.90;29.00
69628;DHT22;56850;51.984;5.088;2022-08-11T19:22:56;33.80;29.10
69628;DHT22;56850;51.984;5.088;2022-08-11T19:25:44;33.80;29.20
69628;DHT22;56850;51.984;5.088;2022-08-11T19:28:32;33.70;29.20
69628;DHT22;56850;51.984;5.088;2022-08-11T19:31:18;33.60;29.40
69628;DHT22;56850;51.984;5.088;2022-08-11T19:34:15;33.50;29.40
69628;DHT22;56850;51.984;5.088;2022-08-11T19:37:02;33.40;29.50
69628;DHT22;56850;51.984;5.088;2022-08-11T19:39:58;33.30;29.40
69628;DHT22;56850;51.984;5.088;2022-08-11T19:42:46;33.20;29.50
69628;DHT22;56850;51.984;5.088;2022-08-11T19:45:55;33.10;29.50
69628;DHT22;56850;51.984;5.088;2022-08-11T19:48:43;33.00;29.70
69628;DHT22;56850;51.984;5.088;2022-08-11T19:51:30;32.90;29.70
69628;DHT22;56850;51.984;5.088;2022-08-11T19:54:23;32.80;29.80
69628;DHT22;56850;51.984;5.088;2022-08-11T19:57:11;32.60;30.10
69628;DHT22;56850;51.984;5.088;2022-08-11T20:00:07;32.50;30.30
69628;DHT22;56850;51.984;5.088;2022-08-11T20:02:57;32.40;30.60
69628;DHT22;56850;51.984;5.088;2022-08-11T20:05:44;32.30;30.80
69628;DHT22;56850;51.984;5.088;2022-08-11T20:08:30;32.20;30.90
69628;DHT22;56850;51.984;5.088;2022-08-11T20:11:22;32.20;31.00
69628;DHT22;56850;51.984;5.088;2022-08-11T20:14:09;32.10;31.10
69628;DHT22;56850;51.984;5.088;2022-08-11T20:16:56;32.00;31.20
69628;DHT22;56850;51.984;5.088;2022-08-11T20:19:43;31.90;31.40
69628;DHT22;56850;51.984;5.088;2022-08-11T20:22:29;31.80;31.60
69628;DHT22;56850;51.984;5.088;2022-08-11T20:25:17;31.70;31.70
69628;DHT22;56850;51.984;5.088;2022-08-11T20:28:04;31.70;31.80
69628;DHT22;56850;51.984;5.088;2022-08-11T20:30:51;31.60;31.90
69628;DHT22;56850;51.984;5.088;2022-08-11T20:33:39;31.60;32.00
69628;DHT22;56850;51.984;5.088;2022-08-11T20:36:24;31.50;32.10
69628;DHT22;56850;51.984;5.088;2022-08-11T20:39:20;31.40;32.10
69628;DHT22;56850;51.984;5.088;2022-08-11T20:42:07;31.40;32.10
69628;DHT22;56850;51.984;5.088;2022-08-11T20:44:57;31.30;32.10
69628;DHT22;56850;51.984;5.088;2022-08-11T20:47:51;31.30;32.10
69628;DHT22;56850;51.984;5.088;2022-08-11T20:50:45;31.20;32.20
69628;DHT22;56850;51.984;5.088;2022-08-11T20:53:39;31.10;32.30
69628;DHT22;56850;51.984;5.088;2022-08-11T20:56:33;31.00;32.30
69628;DHT22;56850;51.984;5.088;2022-08-11T20:59:21;31.00;32.40
69628;DHT22;56850;51.984;5.088;2022-08-11T21:02:23;30.90;32.70
69628;DHT22;56850;51.984;5.088;2022-08-11T21:05:11;30.80;32.90
69628;DHT22;56850;51.984;5.088;2022-08-11T21:08:19;30.70;33.10
69628;DHT22;56850;51.984;5.088;2022-08-11T21:11:09;30.60;33.30
69628;DHT22;56850;51.984;5.088;2022-08-11T21:13:56;30.60;33.60
69628;DHT22;56850;51.984;5.088;2022-08-11T21:16:44;30.50;33.80
69628;DHT22;56850;51.984;5.088;2022-08-11T21:19:55;30.40;34.00
69628;DHT22;56850;51.984;5.088;2022-08-11T21:22:51;30.40;34.30
69628;DHT22;56850;51.984;5.088;2022-08-11T21:26:10;30.30;34.50
69628;DHT22;56850;51.984;5.088;2022-08-11T21:28:59;30.20;34.70
69628;DHT22;56850;51.984;5.088;2022-08-11T21:31:46;30.20;34.80
69628;DHT22;56850;51.984;5.088;2022-08-11T21:34:34;30.10;34.90
69628;DHT22;56850;51.984;5.088;2022-08-11T21:37:20;30.00;35.10
69628;DHT22;56850;51.984;5.088;2022-08-11T21:40:08;30.00;35.30
69628;DHT22;56850;51.984;5.088;2022-08-11T21:42:57;29.90;35.50
69628;DHT22;56850;51.984;5.088;2022-08-11T21:45:44;29.90;35.70
69628;DHT22;56850;51.984;5.088;2022-08-11T21:48:32;29.80;35.90
69628;DHT22;56850;51.984;5.088;2022-08-11T21:51:19;29.70;36.10
69628;DHT22;56850;51.984;5.088;2022-08-11T21:54:10;29.70;36.30
69628;DHT22;56850;51.984;5.088;2022-08-11T21:56:57;29.60;36.50
69628;DHT22;56850;51.984;5.088;2022-08-11T21:59:54;29.60;36.70
69628;DHT22;56850;51.984;5.088;2022-08-11T22:02:44;29.50;36.80
69628;DHT22;56850;51.984;5.088;2022-08-11T22:05:32;29.50;36.90
69628;DHT22;56850;51.984;5.088;2022-08-11T22:08:18;29.40;37.10
69628;DHT22;56850;51.984;5.088;2022-08-11T22:11:05;29.30;37.30
69628;DHT22;56850;51.984;5.088;2022-08-11T22:13:59;29.30;37.50
69628;DHT22;56850;51.984;5.088;2022-08-11T22:16:46;29.20;37.60
69628;DHT22;56850;51.984;5.088;2022-08-11T22:19:32;29.00;37.90
69628;DHT22;56850;51.984;5.088;2022-08-11T22:22:19;28.90;38.00
69628;DHT22;56850;51.984;5.088;2022-08-11T22:25:24;28.90;38.20
69628;DHT22;56850;51.984;5.088;2022-08-11T22:28:21;28.80;38.40
69628;DHT22;56850;51.984;5.088;2022-08-11T22:31:08;28.70;38.60
69628;DHT22;56850;51.984;5.088;2022-08-11T22:33:54;28.70;38.60
69628;DHT22;56850;51.984;5.088;2022-08-11T22:36:41;28.60;38.80
69628;DHT22;56850;51.984;5.088;2022-08-11T22:39:28;28.60;38.90
69628;DHT22;56850;51.984;5.088;2022-08-11T22:42:30;28.60;38.90
69628;DHT22;56850;51.984;5.088;2022-08-11T22:45:16;28.60;39.10
69628;DHT22;56850;51.984;5.088;2022-08-11T22:48:04;28.60;39.10
69628;DHT22;56850;51.984;5.088;2022-08-11T22:50:51;28.50;39.20
69628;DHT22;56850;51.984;5.088;2022-08-11T22:53:37;28.50;39.30
69628;DHT22;56850;51.984;5.088;2022-08-11T22:56:27;28.40;39.40
69628;DHT22;56850;51.984;5.088;2022-08-11T22:59:15;28.40;39.50
69628;DHT22;56850;51.984;5.088;2022-08-11T23:02:05;28.30;39.60
69628;DHT22;56850;51.984;5.088;2022-08-11T23:04:51;28.20;39.80
69628;DHT22;56850;51.984;5.088;2022-08-11T23:07:38;28.20;39.80
69628;DHT22;56850;51.984;5.088;2022-08-11T23:10:23;28.20;39.90
69628;DHT22;56850;51.984;5.088;2022-08-11T23:13:10;28.10;40.00
69628;DHT22;56850;51.984;5.088;2022-08-11T23:15:57;28.10;40.20
69628;DHT22;56850;51.984;5.088;2022-08-11T23:18:43;28.00;40.30
69628;DHT22;56850;51.984;5.088;2022-08-11T23:21:30;27.90;40.40
69628;DHT22;56850;51.984;5.088;2022-08-11T23:24:16;27.80;40.50
69628;DHT22;56850;51.984;5.088;2022-08-11T23:27:03;27.80;40.70
69628;DHT22;56850;51.984;5.088;2022-08-11T23:29:51;27.70;40.80
69628;DHT22;56850;51.984;5.088;2022-08-11T23:32:38;27.60;40.90
69628;DHT22;56850;51.984;5.088;2022-08-11T23:35:26;27.60;41.00
69628;DHT22;56850;51.984;5.088;2022-08-11T23:38:20;27.60;41.10
69628;DHT22;56850;51.984;5.088;2022-08-11T23:41:06;27.50;41.20